Metar Aviation säätiedot     ENZV Stavanger Airport, Sola
Lämpötila
18°C Lämpötila
15°C Kastepiste
83% Kosteus



Tuuli
4 M/S
10 MPH
16 KM/T
9 KTS



250°
LESL
Nykyiset olosuhteet

Puolipilvistä Puolipilvistä
Paine 1027.92 (hPa) - 30.35 (inHg)
Näkyvyys 6.2 (maili) - 10 (km)
Lentokenttä
Lentokentän koodi ENZV

Sijainti: Stavanger Airport, Sola
Etäisyys: 14 (km)

Metar:
ENZV 091220Z 25009KT 9999 FEW040 SCT110 18/15 Q1028

Aika: 09-08-2022 14:20 CEST